sensor_id;sensor_type;location;lat;lon;timestamp;pressure;altitude;pressure_sealevel;temperature;humidity
19114;BME280;9689;51.052;13.772;2022-11-30T00:00:07;100929.50;;;4.48;74.23
19114;BME280;9689;51.052;13.772;2022-11-30T00:05:10;100927.00;;;4.54;72.87
19114;BME280;9689;51.052;13.772;2022-11-30T00:10:13;100931.22;;;4.49;73.43
19114;BME280;9689;51.052;13.772;2022-11-30T00:15:14;100933.81;;;4.51;73.12
19114;BME280;9689;51.052;13.772;2022-11-30T00:20:16;100934.41;;;4.33;73.92
19114;BME280;9689;51.052;13.772;2022-11-30T00:25:19;100939.72;;;4.42;73.90
19114;BME280;9689;51.052;13.772;2022-11-30T00:30:19;100930.34;;;4.49;73.96
19114;BME280;9689;51.052;13.772;2022-11-30T00:35:20;100938.97;;;4.51;73.73
19114;BME280;9689;51.052;13.772;2022-11-30T00:40:22;100940.75;;;4.52;72.92
19114;BME280;9689;51.052;13.772;2022-11-30T00:45:23;100945.09;;;4.58;73.53
19114;BME280;9689;51.052;13.772;2022-11-30T00:50:24;100940.78;;;4.57;73.01
19114;BME280;9689;51.052;13.772;2022-11-30T00:55:26;100939.84;;;4.51;72.59
19114;BME280;9689;51.052;13.772;2022-11-30T01:00:29;100938.16;;;4.52;72.50
19114;BME280;9689;51.052;13.772;2022-11-30T01:05:31;100935.53;;;4.50;73.01
19114;BME280;9689;51.052;13.772;2022-11-30T01:10:35;100932.88;;;4.44;73.22
19114;BME280;9689;51.052;13.772;2022-11-30T01:15:37;100940.66;;;4.46;73.44
19114;BME280;9689;51.052;13.772;2022-11-30T01:20:39;100931.25;;;4.51;72.88
19114;BME280;9689;51.052;13.772;2022-11-30T01:25:52;100930.44;;;4.53;72.79
19114;BME280;9689;51.052;13.772;2022-11-30T01:30:57;100929.47;;;4.47;72.69
19114;BME280;9689;51.052;13.772;2022-11-30T01:36:00;100932.03;;;4.45;72.73
19114;BME280;9689;51.052;13.772;2022-11-30T01:41:05;100927.78;;;4.50;72.74
19114;BME280;9689;51.052;13.772;2022-11-30T01:46:25;100932.03;;;4.45;73.16
19114;BME280;9689;51.052;13.772;2022-11-30T01:51:30;100937.22;;;4.47;73.14
19114;BME280;9689;51.052;13.772;2022-11-30T01:56:35;100935.47;;;4.44;73.03
19114;BME280;9689;51.052;13.772;2022-11-30T02:01:37;100937.13;;;4.42;73.09
19114;BME280;9689;51.052;13.772;2022-11-30T02:06:38;100940.50;;;4.37;73.66
19114;BME280;9689;51.052;13.772;2022-11-30T02:11:40;100940.38;;;4.28;73.63
19114;BME280;9689;51.052;13.772;2022-11-30T02:16:47;100944.66;;;4.27;73.87
19114;BME280;9689;51.052;13.772;2022-11-30T02:21:56;100944.59;;;4.25;72.79
19114;BME280;9689;51.052;13.772;2022-11-30T02:27:10;100950.38;;;4.09;73.63
19114;BME280;9689;51.052;13.772;2022-11-30T02:32:19;100951.28;;;4.11;73.50
19114;BME280;9689;51.052;13.772;2022-11-30T02:37:22;100953.84;;;4.11;73.46
19114;BME280;9689;51.052;13.772;2022-11-30T02:42:24;100952.97;;;4.09;73.60
19114;BME280;9689;51.052;13.772;2022-11-30T02:47:31;100949.59;;;4.15;73.51
19114;BME280;9689;51.052;13.772;2022-11-30T02:52:36;100946.03;;;4.08;74.18
19114;BME280;9689;51.052;13.772;2022-11-30T02:57:36;100954.44;;;3.96;74.44
19114;BME280;9689;51.052;13.772;2022-11-30T03:02:39;100958.91;;;4.07;74.06
19114;BME280;9689;51.052;13.772;2022-11-30T03:07:40;100961.31;;;3.94;73.53
19114;BME280;9689;51.052;13.772;2022-11-30T03:12:41;100967.38;;;3.98;74.27
19114;BME280;9689;51.052;13.772;2022-11-30T03:17:44;100967.31;;;3.93;74.12
19114;BME280;9689;51.052;13.772;2022-11-30T03:22:44;100973.22;;;3.88;74.10
19114;BME280;9689;51.052;13.772;2022-11-30T03:27:45;100976.50;;;3.81;73.82
19114;BME280;9689;51.052;13.772;2022-11-30T03:32:47;100985.97;;;3.80;74.13
19114;BME280;9689;51.052;13.772;2022-11-30T03:37:50;100974.53;;;3.66;74.71
19114;BME280;9689;51.052;13.772;2022-11-30T03:42:50;100971.88;;;3.61;74.86
19114;BME280;9689;51.052;13.772;2022-11-30T03:47:53;100980.41;;;3.59;75.19
19114;BME280;9689;51.052;13.772;2022-11-30T03:52:53;100985.47;;;3.54;74.94
19114;BME280;9689;51.052;13.772;2022-11-30T03:57:54;100986.31;;;3.53;75.61
19114;BME280;9689;51.052;13.772;2022-11-30T04:02:56;100981.94;;;3.48;75.62
19114;BME280;9689;51.052;13.772;2022-11-30T04:07:57;100994.72;;;3.45;75.70
19114;BME280;9689;51.052;13.772;2022-11-30T04:12:58;100988.84;;;3.50;75.47
19114;BME280;9689;51.052;13.772;2022-11-30T04:18:00;100987.84;;;3.44;75.21
19114;BME280;9689;51.052;13.772;2022-11-30T04:23:01;100986.00;;;3.38;75.97
19114;BME280;9689;51.052;13.772;2022-11-30T04:28:02;100990.03;;;3.24;76.35
19114;BME280;9689;51.052;13.772;2022-11-30T04:33:04;100994.34;;;3.26;76.22
19114;BME280;9689;51.052;13.772;2022-11-30T04:38:05;100988.28;;;3.23;76.40
19114;BME280;9689;51.052;13.772;2022-11-30T04:43:06;100988.19;;;3.20;76.59
19114;BME280;9689;51.052;13.772;2022-11-30T04:48:09;100983.88;;;3.19;76.68
19114;BME280;9689;51.052;13.772;2022-11-30T04:53:10;100985.59;;;3.18;76.81
19114;BME280;9689;51.052;13.772;2022-11-30T04:58:11;100996.78;;;3.20;76.87
19114;BME280;9689;51.052;13.772;2022-11-30T05:03:13;101003.66;;;3.20;76.69
19114;BME280;9689;51.052;13.772;2022-11-30T05:08:14;101001.06;;;3.20;76.75
19114;BME280;9689;51.052;13.772;2022-11-30T05:13:15;101010.53;;;3.21;76.89
19114;BME280;9689;51.052;13.772;2022-11-30T05:18:17;101017.47;;;3.22;76.11
19114;BME280;9689;51.052;13.772;2022-11-30T05:23:18;101018.25;;;3.21;76.19
19114;BME280;9689;51.052;13.772;2022-11-30T05:28:19;101017.47;;;3.22;76.02
19114;BME280;9689;51.052;13.772;2022-11-30T05:33:22;101029.34;;;3.17;76.18
19114;BME280;9689;51.052;13.772;2022-11-30T05:38:22;101031.59;;;3.40;76.34
19114;BME280;9689;51.052;13.772;2022-11-30T05:43:23;101032.56;;;3.47;75.10
19114;BME280;9689;51.052;13.772;2022-11-30T05:48:25;101046.00;;;3.32;74.51
19114;BME280;9689;51.052;13.772;2022-11-30T05:53:26;101050.38;;;3.36;75.41
19114;BME280;9689;51.052;13.772;2022-11-30T05:58:27;101039.97;;;3.30;74.77
19114;BME280;9689;51.052;13.772;2022-11-30T06:03:31;101045.88;;;3.26;74.72
19114;BME280;9689;51.052;13.772;2022-11-30T06:08:32;101056.69;;;3.11;75.51
19114;BME280;9689;51.052;13.772;2022-11-30T06:13:33;101063.66;;;3.14;74.93
19114;BME280;9689;51.052;13.772;2022-11-30T06:18:35;101063.25;;;2.97;76.17
19114;BME280;9689;51.052;13.772;2022-11-30T06:23:36;101058.19;;;3.02;76.22
19114;BME280;9689;51.052;13.772;2022-11-30T06:28:38;101062.25;;;2.91;76.37
19114;BME280;9689;51.052;13.772;2022-11-30T06:33:47;101053.59;;;2.87;76.41
19114;BME280;9689;51.052;13.772;2022-11-30T06:38:48;101067.16;;;2.80;76.54
19114;BME280;9689;51.052;13.772;2022-11-30T06:43:49;101071.59;;;2.87;76.64
19114;BME280;9689;51.052;13.772;2022-11-30T06:48:52;101072.16;;;2.75;77.33
19114;BME280;9689;51.052;13.772;2022-11-30T06:53:52;101073.19;;;2.82;77.21
19114;BME280;9689;51.052;13.772;2022-11-30T06:59:18;101092.88;;;2.80;77.07
19114;BME280;9689;51.052;13.772;2022-11-30T07:04:20;101095.50;;;2.83;76.99
19114;BME280;9689;51.052;13.772;2022-11-30T07:09:21;101098.81;;;2.77;76.63
19114;BME280;9689;51.052;13.772;2022-11-30T07:14:22;101109.94;;;2.76;76.85
19114;BME280;9689;51.052;13.772;2022-11-30T07:19:25;101110.06;;;2.81;76.88
19114;BME280;9689;51.052;13.772;2022-11-30T07:24:26;101110.09;;;2.82;76.89
19114;BME280;9689;51.052;13.772;2022-11-30T07:29:47;101120.41;;;2.84;77.02
19114;BME280;9689;51.052;13.772;2022-11-30T07:34:51;101122.38;;;2.94;76.33
19114;BME280;9689;51.052;13.772;2022-11-30T07:39:52;101120.44;;;2.86;76.59
19114;BME280;9689;51.052;13.772;2022-11-30T07:44:53;101125.97;;;3.01;76.15
19114;BME280;9689;51.052;13.772;2022-11-30T07:49:59;101121.69;;;3.01;75.74
19114;BME280;9689;51.052;13.772;2022-11-30T07:55:00;101121.00;;;3.08;75.53
19114;BME280;9689;51.052;13.772;2022-11-30T08:00:01;101118.91;;;3.30;75.28
19114;BME280;9689;51.052;13.772;2022-11-30T08:05:11;101133.03;;;3.47;74.32
19114;BME280;9689;51.052;13.772;2022-11-30T08:10:13;101119.53;;;3.57;73.71
19114;BME280;9689;51.052;13.772;2022-11-30T08:15:14;101113.66;;;3.64;73.18
19114;BME280;9689;51.052;13.772;2022-11-30T08:20:21;101114.41;;;3.59;73.66
19114;BME280;9689;51.052;13.772;2022-11-30T08:25:22;101116.34;;;3.69;72.77
19114;BME280;9689;51.052;13.772;2022-11-30T08:30:23;101133.88;;;3.85;72.23
19114;BME280;9689;51.052;13.772;2022-11-30T08:35:30;101128.88;;;3.93;71.33
19114;BME280;9689;51.052;13.772;2022-11-30T08:40:31;101137.41;;;3.90;71.54
19114;BME280;9689;51.052;13.772;2022-11-30T08:45:32;101141.69;;;4.80;78.31
19114;BME280;9689;51.052;13.772;2022-11-30T08:50:35;101149.44;;;5.36;71.77
19114;BME280;9689;51.052;13.772;2022-11-30T08:55:36;101139.94;;;5.34;70.38
19114;BME280;9689;51.052;13.772;2022-11-30T09:00:37;101146.97;;;5.43;69.05
19114;BME280;9689;51.052;13.772;2022-11-30T09:05:39;101156.31;;;5.34;68.48
19114;BME280;9689;51.052;13.772;2022-11-30T09:10:40;101160.91;;;5.55;69.47
19114;BME280;9689;51.052;13.772;2022-11-30T09:15:40;101154.75;;;5.46;68.95
19114;BME280;9689;51.052;13.772;2022-11-30T09:20:43;101151.31;;;5.47;67.19
19114;BME280;9689;51.052;13.772;2022-11-30T09:25:43;101155.56;;;4.87;68.64
19114;BME280;9689;51.052;13.772;2022-11-30T09:30:44;101157.88;;;4.72;69.14
19114;BME280;9689;51.052;13.772;2022-11-30T09:35:55;101163.78;;;4.65;69.16
19114;BME280;9689;51.052;13.772;2022-11-30T09:40:57;101156.13;;;4.69;69.96
19114;BME280;9689;51.052;13.772;2022-11-30T09:46:01;101154.34;;;4.67;69.41
19114;BME280;9689;51.052;13.772;2022-11-30T09:51:10;101156.22;;;4.75;69.38
19114;BME280;9689;51.052;13.772;2022-11-30T09:56:18;101143.25;;;4.71;69.15
19114;BME280;9689;51.052;13.772;2022-11-30T10:01:24;101149.13;;;4.64;69.39
19114;BME280;9689;51.052;13.772;2022-11-30T10:06:41;101144.16;;;4.74;69.04
19114;BME280;9689;51.052;13.772;2022-11-30T10:11:55;101145.69;;;4.63;69.70
19114;BME280;9689;51.052;13.772;2022-11-30T10:17:05;101142.31;;;4.69;70.00
19114;BME280;9689;51.052;13.772;2022-11-30T10:22:18;101148.47;;;4.75;69.81
19114;BME280;9689;51.052;13.772;2022-11-30T10:27:34;101139.81;;;4.72;69.44
19114;BME280;9689;51.052;13.772;2022-11-30T10:32:40;101148.38;;;4.69;70.39
19114;BME280;9689;51.052;13.772;2022-11-30T10:37:45;101138.94;;;4.70;69.41
19114;BME280;9689;51.052;13.772;2022-11-30T10:42:49;101135.53;;;4.72;69.56
19114;BME280;9689;51.052;13.772;2022-11-30T10:47:58;101140.09;;;4.87;68.68
19114;BME280;9689;51.052;13.772;2022-11-30T10:53:01;101131.72;;;5.03;68.52
19114;BME280;9689;51.052;13.772;2022-11-30T10:58:06;101133.03;;;5.33;69.61
19114;BME280;9689;51.052;13.772;2022-11-30T11:03:22;101127.78;;;5.90;69.04
19114;BME280;9689;51.052;13.772;2022-11-30T11:08:24;101131.16;;;5.83;65.92
19114;BME280;9689;51.052;13.772;2022-11-30T11:13:37;101136.16;;;5.71;65.84
19114;BME280;9689;51.052;13.772;2022-11-30T11:18:51;101137.94;;;5.75;64.72
19114;BME280;9689;51.052;13.772;2022-11-30T11:23:54;101125.78;;;5.70;64.57
19114;BME280;9689;51.052;13.772;2022-11-30T11:28:57;101122.47;;;5.80;65.85
19114;BME280;9689;51.052;13.772;2022-11-30T11:33:58;101122.34;;;5.71;65.58
19114;BME280;9689;51.052;13.772;2022-11-30T11:39:01;101116.81;;;5.45;66.33
19114;BME280;9689;51.052;13.772;2022-11-30T11:44:04;101111.69;;;5.46;66.33
19114;BME280;9689;51.052;13.772;2022-11-30T11:49:17;101124.47;;;5.35;66.65
19114;BME280;9689;51.052;13.772;2022-11-30T11:54:22;101123.59;;;5.36;67.54
19114;BME280;9689;51.052;13.772;2022-11-30T11:59:35;101117.53;;;5.33;65.57
19114;BME280;9689;51.052;13.772;2022-11-30T12:04:43;101116.59;;;5.28;66.37
19114;BME280;9689;51.052;13.772;2022-11-30T12:09:54;101118.25;;;5.23;66.71
19114;BME280;9689;51.052;13.772;2022-11-30T12:14:56;101121.75;;;5.28;66.89
19114;BME280;9689;51.052;13.772;2022-11-30T12:20:03;101120.91;;;5.29;66.87
19114;BME280;9689;51.052;13.772;2022-11-30T12:25:20;101121.94;;;5.40;67.04
19114;BME280;9689;51.052;13.772;2022-11-30T12:30:28;101115.09;;;5.44;67.06
19114;BME280;9689;51.052;13.772;2022-11-30T12:35:35;101123.53;;;5.30;66.67
19114;BME280;9689;51.052;13.772;2022-11-30T12:40:45;101119.25;;;5.31;66.92
19114;BME280;9689;51.052;13.772;2022-11-30T12:45:55;101122.63;;;5.28;67.28
19114;BME280;9689;51.052;13.772;2022-11-30T12:51:08;101125.94;;;5.20;67.72
19114;BME280;9689;51.052;13.772;2022-11-30T12:56:21;101121.00;;;5.35;67.32
19114;BME280;9689;51.052;13.772;2022-11-30T13:01:39;101120.50;;;5.62;66.44
19114;BME280;9689;51.052;13.772;2022-11-30T13:06:45;101117.91;;;5.60;65.76
19114;BME280;9689;51.052;13.772;2022-11-30T13:11:52;101130.69;;;5.50;66.65
19114;BME280;9689;51.052;13.772;2022-11-30T13:17:00;101125.44;;;5.44;66.79
19114;BME280;9689;51.052;13.772;2022-11-30T13:22:05;101124.72;;;5.54;65.95
19114;BME280;9689;51.052;13.772;2022-11-30T13:27:14;101111.88;;;5.60;65.45
19114;BME280;9689;51.052;13.772;2022-11-30T13:32:18;101132.59;;;5.63;66.29
19114;BME280;9689;51.052;13.772;2022-11-30T13:37:39;101125.44;;;5.45;66.65
19114;BME280;9689;51.052;13.772;2022-11-30T13:42:42;101135.00;;;5.48;66.88
19114;BME280;9689;51.052;13.772;2022-11-30T13:47:53;101131.47;;;5.44;66.60
19114;BME280;9689;51.052;13.772;2022-11-30T13:53:22;101123.81;;;5.52;66.17
19114;BME280;9689;51.052;13.772;2022-11-30T13:58:25;101141.03;;;5.48;66.46
19114;BME280;9689;51.052;13.772;2022-11-30T14:03:27;101148.56;;;5.34;67.03
19114;BME280;9689;51.052;13.772;2022-11-30T14:08:32;101152.78;;;5.29;67.19
19114;BME280;9689;51.052;13.772;2022-11-30T14:13:35;101152.78;;;5.29;67.23
19114;BME280;9689;51.052;13.772;2022-11-30T14:18:40;101150.03;;;5.19;68.39
19114;BME280;9689;51.052;13.772;2022-11-30T14:23:47;101158.69;;;5.21;68.50
19114;BME280;9689;51.052;13.772;2022-11-30T14:28:56;101151.75;;;5.18;67.67
19114;BME280;9689;51.052;13.772;2022-11-30T14:34:04;101160.31;;;5.14;68.59
19114;BME280;9689;51.052;13.772;2022-11-30T14:39:25;101154.97;;;5.03;69.08
19114;BME280;9689;51.052;13.772;2022-11-30T14:44:32;101161.16;;;5.13;69.30
19114;BME280;9689;51.052;13.772;2022-11-30T14:49:34;101149.88;;;5.08;69.34
19114;BME280;9689;51.052;13.772;2022-11-30T14:54:41;101148.09;;;5.04;69.36
19114;BME280;9689;51.052;13.772;2022-11-30T14:59:49;101155.69;;;4.95;70.17
19114;BME280;9689;51.052;13.772;2022-11-30T15:04:52;101156.75;;;5.06;69.80
19114;BME280;9689;51.052;13.772;2022-11-30T15:10:00;101157.66;;;5.09;69.28
19114;BME280;9689;51.052;13.772;2022-11-30T15:15:11;101169.69;;;5.09;70.03
19114;BME280;9689;51.052;13.772;2022-11-30T15:20:22;101171.44;;;5.11;70.46
19114;BME280;9689;51.052;13.772;2022-11-30T15:25:29;101174.97;;;5.14;70.16
19114;BME280;9689;51.052;13.772;2022-11-30T15:30:35;101167.97;;;5.08;69.67
19114;BME280;9689;51.052;13.772;2022-11-30T15:35:44;101175.63;;;5.03;70.12
19114;BME280;9689;51.052;13.772;2022-11-30T15:41:14;101181.63;;;5.02;69.93
19114;BME280;9689;51.052;13.772;2022-11-30T15:46:31;101173.94;;;5.04;70.57
19114;BME280;9689;51.052;13.772;2022-11-30T15:51:36;101165.28;;;5.03;70.27
19114;BME280;9689;51.052;13.772;2022-11-30T15:56:37;101179.25;;;5.13;71.20
19114;BME280;9689;51.052;13.772;2022-11-30T16:01:51;101175.72;;;5.09;69.80
19114;BME280;9689;51.052;13.772;2022-11-30T16:07:03;101175.69;;;5.05;71.06
19114;BME280;9689;51.052;13.772;2022-11-30T16:12:16;101176.56;;;5.07;71.10
19114;BME280;9689;51.052;13.772;2022-11-30T16:17:25;101177.31;;;5.01;70.79
19114;BME280;9689;51.052;13.772;2022-11-30T16:22:28;101182.66;;;5.12;70.00
19114;BME280;9689;51.052;13.772;2022-11-30T16:27:29;101178.31;;;5.08;70.34
19114;BME280;9689;51.052;13.772;2022-11-30T16:32:31;101175.72;;;5.08;70.62
19114;BME280;9689;51.052;13.772;2022-11-30T16:37:32;101181.75;;;5.08;69.94
19114;BME280;9689;51.052;13.772;2022-11-30T16:42:33;101183.56;;;5.14;70.23
19114;BME280;9689;51.052;13.772;2022-11-30T16:47:35;101185.16;;;5.06;71.06
19114;BME280;9689;51.052;13.772;2022-11-30T16:52:36;101178.19;;;5.02;70.94
19114;BME280;9689;51.052;13.772;2022-11-30T16:57:37;101188.59;;;5.05;70.47
19114;BME280;9689;51.052;13.772;2022-11-30T17:02:43;101185.91;;;5.00;71.41
19114;BME280;9689;51.052;13.772;2022-11-30T17:07:44;101193.63;;;4.97;71.87
19114;BME280;9689;51.052;13.772;2022-11-30T17:12:45;101202.25;;;4.99;71.91
19114;BME280;9689;51.052;13.772;2022-11-30T17:17:47;101204.97;;;5.05;71.19
19114;BME280;9689;51.052;13.772;2022-11-30T17:22:48;101202.41;;;5.08;70.82
19114;BME280;9689;51.052;13.772;2022-11-30T17:27:49;101207.63;;;5.11;71.28
19114;BME280;9689;51.052;13.772;2022-11-30T17:32:52;101199.94;;;5.13;71.55
19114;BME280;9689;51.052;13.772;2022-11-30T17:37:53;101205.91;;;5.12;70.16
19114;BME280;9689;51.052;13.772;2022-11-30T17:42:54;101218.00;;;5.13;71.24
19114;BME280;9689;51.052;13.772;2022-11-30T17:47:56;101223.06;;;5.07;71.75
19114;BME280;9689;51.052;13.772;2022-11-30T17:52:57;101233.41;;;5.08;71.18
19114;BME280;9689;51.052;13.772;2022-11-30T17:57:58;101232.41;;;5.00;71.86
19114;BME280;9689;51.052;13.772;2022-11-30T18:03:00;101241.69;;;4.89;72.30
19114;BME280;9689;51.052;13.772;2022-11-30T18:08:01;101235.31;;;4.70;72.94
19114;BME280;9689;51.052;13.772;2022-11-30T18:13:02;101243.84;;;4.66;73.05
19114;BME280;9689;51.052;13.772;2022-11-30T18:18:04;101245.47;;;4.61;74.04
19114;BME280;9689;51.052;13.772;2022-11-30T18:23:05;101247.88;;;4.52;74.31
19114;BME280;9689;51.052;13.772;2022-11-30T18:28:06;101258.47;;;4.25;75.56
19114;BME280;9689;51.052;13.772;2022-11-30T18:33:08;101246.19;;;4.12;75.64
19114;BME280;9689;51.052;13.772;2022-11-30T18:38:09;101263.03;;;3.96;76.68
19114;BME280;9689;51.052;13.772;2022-11-30T18:43:10;101275.84;;;3.93;76.06
19114;BME280;9689;51.052;13.772;2022-11-30T18:48:12;101277.06;;;3.71;77.16
19114;BME280;9689;51.052;13.772;2022-11-30T18:53:13;101283.22;;;3.76;77.82
19114;BME280;9689;51.052;13.772;2022-11-30T18:58:17;101286.66;;;3.77;77.15
19114;BME280;9689;51.052;13.772;2022-11-30T19:03:19;101288.41;;;3.79;76.93
19114;BME280;9689;51.052;13.772;2022-11-30T19:08:20;101303.41;;;3.59;77.14
19114;BME280;9689;51.052;13.772;2022-11-30T19:13:20;101292.06;;;3.51;77.12
19114;BME280;9689;51.052;13.772;2022-11-30T19:18:23;101298.88;;;3.49;77.23
19114;BME280;9689;51.052;13.772;2022-11-30T19:23:24;101295.50;;;3.52;77.19
19114;BME280;9689;51.052;13.772;2022-11-30T19:28:27;101301.06;;;3.34;77.47
19114;BME280;9689;51.052;13.772;2022-11-30T19:33:30;101302.56;;;3.26;77.21
19114;BME280;9689;51.052;13.772;2022-11-30T19:38:30;101298.94;;;3.18;77.21
19114;BME280;9689;51.052;13.772;2022-11-30T19:43:31;101301.97;;;3.03;77.71
19114;BME280;9689;51.052;13.772;2022-11-30T19:48:36;101310.22;;;2.90;78.63
19114;BME280;9689;51.052;13.772;2022-11-30T19:53:38;101314.38;;;2.86;78.64
19114;BME280;9689;51.052;13.772;2022-11-30T19:58:39;101315.09;;;2.80;78.51
19114;BME280;9689;51.052;13.772;2022-11-30T20:03:42;101320.41;;;2.57;79.41
19114;BME280;9689;51.052;13.772;2022-11-30T20:08:43;101328.63;;;2.43;79.50
19114;BME280;9689;51.052;13.772;2022-11-30T20:13:44;101327.81;;;2.44;79.55
19114;BME280;9689;51.052;13.772;2022-11-30T20:18:53;101340.25;;;2.31;80.51
19114;BME280;9689;51.052;13.772;2022-11-30T20:23:55;101348.03;;;2.34;80.23
19114;BME280;9689;51.052;13.772;2022-11-30T20:28:59;101339.63;;;2.39;79.84
19114;BME280;9689;51.052;13.772;2022-11-30T20:34:01;101353.00;;;2.28;80.33
19114;BME280;9689;51.052;13.772;2022-11-30T20:39:03;101357.06;;;2.19;80.38
19114;BME280;9689;51.052;13.772;2022-11-30T20:44:04;101352.66;;;2.17;80.81
19114;BME280;9689;51.052;13.772;2022-11-30T20:49:12;101356.47;;;2.28;81.31
19114;BME280;9689;51.052;13.772;2022-11-30T20:54:16;101360.22;;;2.39;81.66
19114;BME280;9689;51.052;13.772;2022-11-30T20:59:17;101367.66;;;2.30;80.66
19114;BME280;9689;51.052;13.772;2022-11-30T21:04:24;101367.09;;;2.12;80.65
19114;BME280;9689;51.052;13.772;2022-11-30T21:09:25;101360.88;;;2.05;81.06
19114;BME280;9689;51.052;13.772;2022-11-30T21:14:26;101369.63;;;2.10;81.20
19114;BME280;9689;51.052;13.772;2022-11-30T21:19:28;101379.66;;;2.03;81.60
19114;BME280;9689;51.052;13.772;2022-11-30T21:24:29;101383.31;;;2.09;81.51
19114;BME280;9689;51.052;13.772;2022-11-30T21:29:30;101378.00;;;2.05;81.53
19114;BME280;9689;51.052;13.772;2022-11-30T21:34:32;101391.09;;;2.12;81.22
19114;BME280;9689;51.052;13.772;2022-11-30T21:39:33;101380.53;;;2.03;80.81
19114;BME280;9689;51.052;13.772;2022-11-30T21:44:34;101383.63;;;1.93;80.80
19114;BME280;9689;51.052;13.772;2022-11-30T21:49:36;101386.16;;;1.91;80.67
19114;BME280;9689;51.052;13.772;2022-11-30T21:54:37;101386.00;;;1.87;80.65
19114;BME280;9689;51.052;13.772;2022-11-30T21:59:38;101390.19;;;1.83;81.00
19114;BME280;9689;51.052;13.772;2022-11-30T22:04:41;101393.53;;;1.82;80.96
19114;BME280;9689;51.052;13.772;2022-11-30T22:09:41;101394.03;;;1.70;81.31
19114;BME280;9689;51.052;13.772;2022-11-30T22:14:42;101395.88;;;1.75;80.97
19114;BME280;9689;51.052;13.772;2022-11-30T22:19:44;101400.75;;;1.67;81.25
19114;BME280;9689;51.052;13.772;2022-11-30T22:24:46;101391.66;;;1.77;80.96
19114;BME280;9689;51.052;13.772;2022-11-30T22:29:47;101405.94;;;1.68;81.43
19114;BME280;9689;51.052;13.772;2022-11-30T22:34:50;101391.09;;;1.60;81.83
19114;BME280;9689;51.052;13.772;2022-11-30T22:39:51;101396.03;;;1.54;81.88
19114;BME280;9689;51.052;13.772;2022-11-30T22:44:52;101393.19;;;1.46;82.30
19114;BME280;9689;51.052;13.772;2022-11-30T22:49:54;101396.03;;;1.30;82.37
19114;BME280;9689;51.052;13.772;2022-11-30T22:54:55;101401.53;;;1.15;83.26
19114;BME280;9689;51.052;13.772;2022-11-30T22:59:56;101404.25;;;1.20;83.34
19114;BME280;9689;51.052;13.772;2022-11-30T23:04:58;101413.03;;;1.26;83.02
19114;BME280;9689;51.052;13.772;2022-11-30T23:09:59;101401.06;;;1.27;83.39
19114;BME280;9689;51.052;13.772;2022-11-30T23:15:00;101398.78;;;1.34;83.14
19114;BME280;9689;51.052;13.772;2022-11-30T23:20:02;101395.28;;;1.32;82.65
19114;BME280;9689;51.052;13.772;2022-11-30T23:25:03;101397.03;;;1.33;83.28
19114;BME280;9689;51.052;13.772;2022-11-30T23:30:06;101391.84;;;1.32;83.16
19114;BME280;9689;51.052;13.772;2022-11-30T23:35:09;101391.84;;;1.32;82.74
19114;BME280;9689;51.052;13.772;2022-11-30T23:40:11;101394.75;;;1.17;82.92
19114;BME280;9689;51.052;13.772;2022-11-30T23:45:11;101376.81;;;1.19;83.07
19114;BME280;9689;51.052;13.772;2022-11-30T23:50:14;101384.72;;;1.23;83.20
19114;BME280;9689;51.052;13.772;2022-11-30T23:55:15;101380.44;;;1.24;82.98
